CEB907 RPLL-RPVE
Flight info
| Callsign | CEB907 |
|---|---|
| Flight time | 0h 32m |
| Altitude | 21000 |
| Route | VERDE W24 TAPER TAPER7A |
| Aircraft | A320/M-SDE3FGHIRWY/LB1 |
Departure
| Time | 2026-04-26 10:04 |
|---|---|
| Airport | Ninoy Aquino International Airport (RPLL) |
Arrival
| Time | 2026-04-26 10:37 |
|---|---|
| Airport | Godofredo P. Ramos Airport (RPVE) |
| Time | Latitude | Longitude | Altitude | Speed | Heading |
|---|---|---|---|---|---|
| 2026-04-26 09:46 | 14.52147 | 121.01043 | 59 ft | 0 kts | 45° |
| 2026-04-26 09:54 | 14.52131 | 121.01027 | 61 ft | 4 kts | 45° |
| 2026-04-26 09:55 | 14.52112 | 121.01007 | 60 ft | 4 kts | 45° |
| 2026-04-26 09:55 | 14.52093 | 121.00988 | 60 ft | 4 kts | 45° |
| 2026-04-26 09:55 | 14.52079 | 121.00967 | 62 ft | 4 kts | 83° |
| 2026-04-26 09:55 | 14.52084 | 121.00943 | 63 ft | 4 kts | 131° |
| 2026-04-26 09:56 | 14.52083 | 121.00944 | 63 ft | 4 kts | 135° |
| 2026-04-26 09:56 | 14.52064 | 121.00963 | 62 ft | 4 kts | 135° |
| 2026-04-26 09:56 | 14.52044 | 121.00983 | 64 ft | 4 kts | 135° |
| 2026-04-26 09:56 | 14.52025 | 121.01003 | 66 ft | 4 kts | 135° |
| 2026-04-26 09:57 | 14.52017 | 121.01011 | 64 ft | 0 kts | 135° |
| 2026-04-26 09:59 | 14.52006 | 121.01022 | 64 ft | 5 kts | 135° |
| 2026-04-26 09:59 | 14.51982 | 121.01048 | 63 ft | 6 kts | 135° |
| 2026-04-26 10:00 | 14.51905 | 121.01046 | 62 ft | 16 kts | 195° |
| 2026-04-26 10:00 | 14.51834 | 121.01098 | 61 ft | 16 kts | 134° |
| 2026-04-26 10:00 | 14.51824 | 121.01108 | 62 ft | 16 kts | 135° |
| 2026-04-26 10:00 | 14.51747 | 121.01187 | 64 ft | 16 kts | 135° |
| 2026-04-26 10:01 | 14.51665 | 121.01271 | 66 ft | 18 kts | 135° |
| 2026-04-26 10:01 | 14.51575 | 121.01363 | 64 ft | 19 kts | 134° |
| 2026-04-26 10:01 | 14.51479 | 121.01463 | 68 ft | 20 kts | 135° |
| 2026-04-26 10:01 | 14.51377 | 121.01567 | 62 ft | 21 kts | 135° |
| 2026-04-26 10:02 | 14.51272 | 121.01676 | 64 ft | 22 kts | 135° |
| 2026-04-26 10:02 | 14.51164 | 121.01786 | 63 ft | 20 kts | 134° |
| 2026-04-26 10:02 | 14.51114 | 121.01838 | 65 ft | 0 kts | 135° |
| 2026-04-26 10:03 | 14.51100 | 121.01852 | 67 ft | 10 kts | 138° |
| 2026-04-26 10:03 | 14.51035 | 121.01824 | 64 ft | 12 kts | 242° |
| 2026-04-26 10:03 | 14.51060 | 121.01752 | 60 ft | 20 kts | 314° |
| 2026-04-26 10:03 | 14.51359 | 121.01442 | 66 ft | 99 kts | 315° |
| 2026-04-26 10:04 | 14.51996 | 121.00782 | 68 ft | 157 kts | 315° |
| 2026-04-26 10:04 | 14.52807 | 120.99947 | 576 ft | 166 kts | 316° |
| 2026-04-26 10:04 | 14.53618 | 120.99109 | 1223 ft | 163 kts | 318° |
| 2026-04-26 10:04 | 14.54414 | 120.98285 | 1858 ft | 162 kts | 318° |
| 2026-04-26 10:05 | 14.55246 | 120.97426 | 2174 ft | 180 kts | 318° |
| 2026-04-26 10:05 | 14.56188 | 120.96458 | 2383 ft | 202 kts | 316° |
| 2026-04-26 10:05 | 14.57237 | 120.95374 | 2587 ft | 225 kts | 316° |
| 2026-04-26 10:05 | 14.58403 | 120.94165 | 2864 ft | 250 kts | 316° |
| 2026-04-26 10:06 | 14.59538 | 120.92714 | 3246 ft | 271 kts | 295° |
| 2026-04-26 10:06 | 14.59947 | 120.90806 | 3931 ft | 277 kts | 266° |
| 2026-04-26 10:06 | 14.59490 | 120.88905 | 4731 ft | 278 kts | 242° |
| 2026-04-26 10:06 | 14.58300 | 120.87282 | 5305 ft | 291 kts | 218° |
| 2026-04-26 10:07 | 14.56442 | 120.86307 | 5609 ft | 312 kts | 191° |
| 2026-04-26 10:07 | 14.54214 | 120.86288 | 5855 ft | 333 kts | 171° |
| 2026-04-26 10:07 | 14.51844 | 120.86676 | 6044 ft | 356 kts | 170° |
| 2026-04-26 10:07 | 14.49352 | 120.87101 | 6177 ft | 377 kts | 170° |
| 2026-04-26 10:08 | 14.46722 | 120.87549 | 6627 ft | 386 kts | 170° |
| 2026-04-26 10:08 | 14.44053 | 120.87997 | 7218 ft | 391 kts | 170° |
| 2026-04-26 10:08 | 14.41351 | 120.88443 | 7849 ft | 394 kts | 170° |
| 2026-04-26 10:08 | 14.38632 | 120.88885 | 8479 ft | 397 kts | 170° |
| 2026-04-26 10:09 | 14.35884 | 120.89327 | 9097 ft | 401 kts | 170° |
| 2026-04-26 10:09 | 14.34053 | 120.89622 | 9485 ft | 403 kts | 170° |
| 2026-04-26 10:09 | 14.30317 | 120.90224 | 10200 ft | 408 kts | 171° |
| 2026-04-26 10:09 | 14.27503 | 120.90679 | 10718 ft | 411 kts | 171° |
| 2026-04-26 10:10 | 14.24660 | 120.91142 | 11230 ft | 414 kts | 171° |
| 2026-04-26 10:10 | 14.21798 | 120.91610 | 11715 ft | 417 kts | 171° |
| 2026-04-26 10:10 | 14.18924 | 120.92077 | 12198 ft | 420 kts | 171° |
| 2026-04-26 10:10 | 14.16028 | 120.92546 | 12671 ft | 423 kts | 171° |
| 2026-04-26 10:11 | 14.14090 | 120.92861 | 12983 ft | 425 kts | 171° |
| 2026-04-26 10:11 | 14.11159 | 120.93336 | 13422 ft | 428 kts | 171° |
| 2026-04-26 10:11 | 14.08201 | 120.93812 | 13813 ft | 432 kts | 171° |
| 2026-04-26 10:11 | 14.05221 | 120.94293 | 14192 ft | 434 kts | 171° |
| 2026-04-26 10:12 | 14.01246 | 120.94939 | 14701 ft | 437 kts | 171° |
| 2026-04-26 10:12 | 13.99215 | 120.95271 | 14962 ft | 439 kts | 172° |
| 2026-04-26 10:12 | 13.96189 | 120.95763 | 15348 ft | 441 kts | 172° |
| 2026-04-26 10:12 | 13.93157 | 120.96254 | 15723 ft | 443 kts | 172° |
| 2026-04-26 10:13 | 13.90106 | 120.96746 | 16108 ft | 444 kts | 172° |
| 2026-04-26 10:13 | 13.87080 | 120.97233 | 16463 ft | 447 kts | 172° |
| 2026-04-26 10:13 | 13.83999 | 120.97729 | 16798 ft | 449 kts | 172° |
| 2026-04-26 10:13 | 13.80907 | 120.98230 | 17134 ft | 452 kts | 172° |
| 2026-04-26 10:14 | 13.77787 | 120.98734 | 17474 ft | 454 kts | 172° |
| 2026-04-26 10:14 | 13.74664 | 120.99241 | 17786 ft | 456 kts | 172° |
| 2026-04-26 10:14 | 13.71512 | 120.99755 | 18134 ft | 458 kts | 172° |
| 2026-04-26 10:14 | 13.68357 | 121.00267 | 18414 ft | 460 kts | 172° |
| 2026-04-26 10:15 | 13.65191 | 121.00779 | 18682 ft | 462 kts | 172° |
| 2026-04-26 10:15 | 13.62010 | 121.01290 | 18945 ft | 464 kts | 172° |
| 2026-04-26 10:15 | 13.58804 | 121.01804 | 19195 ft | 466 kts | 172° |
| 2026-04-26 10:15 | 13.55593 | 121.02318 | 19447 ft | 468 kts | 172° |
| 2026-04-26 10:16 | 13.52372 | 121.02894 | 19691 ft | 471 kts | 167° |
| 2026-04-26 10:16 | 13.49282 | 121.04062 | 19930 ft | 475 kts | 154° |
| 2026-04-26 10:16 | 13.46480 | 121.05867 | 20149 ft | 478 kts | 146° |
| 2026-04-26 10:16 | 13.43737 | 121.07810 | 20370 ft | 480 kts | 146° |
| 2026-04-26 10:17 | 13.40983 | 121.09764 | 20572 ft | 482 kts | 146° |
| 2026-04-26 10:17 | 13.38217 | 121.11718 | 20779 ft | 484 kts | 147° |
| 2026-04-26 10:17 | 13.35434 | 121.13678 | 20889 ft | 485 kts | 147° |
| 2026-04-26 10:17 | 13.32689 | 121.15608 | 20914 ft | 485 kts | 146° |
| 2026-04-26 10:18 | 13.29910 | 121.17561 | 20912 ft | 484 kts | 146° |
| 2026-04-26 10:18 | 13.27131 | 121.19512 | 20915 ft | 484 kts | 147° |
| 2026-04-26 10:18 | 13.24344 | 121.21463 | 20915 ft | 485 kts | 147° |
| 2026-04-26 10:18 | 13.21558 | 121.23410 | 20926 ft | 485 kts | 147° |
| 2026-04-26 10:19 | 13.18764 | 121.25366 | 20926 ft | 485 kts | 146° |
| 2026-04-26 10:19 | 13.15979 | 121.27318 | 20926 ft | 484 kts | 146° |
| 2026-04-26 10:19 | 13.13202 | 121.29268 | 20926 ft | 484 kts | 146° |
| 2026-04-26 10:19 | 13.10423 | 121.31220 | 20921 ft | 484 kts | 146° |
| 2026-04-26 10:20 | 13.07650 | 121.33166 | 20926 ft | 484 kts | 146° |
| 2026-04-26 10:20 | 13.04865 | 121.35117 | 20927 ft | 484 kts | 146° |
| 2026-04-26 10:20 | 13.02086 | 121.37061 | 20926 ft | 484 kts | 146° |
| 2026-04-26 10:20 | 12.99303 | 121.39006 | 20926 ft | 484 kts | 146° |
| 2026-04-26 10:21 | 12.96522 | 121.40948 | 20925 ft | 484 kts | 146° |
| 2026-04-26 10:21 | 12.93745 | 121.42889 | 20916 ft | 484 kts | 146° |
| 2026-04-26 10:21 | 12.90959 | 121.44834 | 20916 ft | 484 kts | 146° |
| 2026-04-26 10:21 | 12.88179 | 121.46776 | 20916 ft | 484 kts | 146° |
| 2026-04-26 10:22 | 12.85394 | 121.48719 | 20918 ft | 484 kts | 146° |
| 2026-04-26 10:22 | 12.82646 | 121.50635 | 20918 ft | 484 kts | 146° |
| 2026-04-26 10:22 | 12.79859 | 121.52579 | 20901 ft | 483 kts | 146° |
| 2026-04-26 10:22 | 12.77102 | 121.54504 | 20439 ft | 476 kts | 146° |
| 2026-04-26 10:23 | 12.74376 | 121.56408 | 19699 ft | 471 kts | 146° |
| 2026-04-26 10:23 | 12.71686 | 121.58290 | 19114 ft | 466 kts | 146° |
| 2026-04-26 10:23 | 12.69000 | 121.60171 | 18884 ft | 467 kts | 146° |
| 2026-04-26 10:23 | 12.66314 | 121.62048 | 18656 ft | 466 kts | 146° |
| 2026-04-26 10:24 | 12.63643 | 121.63912 | 18427 ft | 464 kts | 146° |
| 2026-04-26 10:24 | 12.60980 | 121.65768 | 18204 ft | 462 kts | 146° |
| 2026-04-26 10:24 | 12.58327 | 121.67616 | 17945 ft | 461 kts | 146° |
| 2026-04-26 10:24 | 12.55678 | 121.69460 | 17706 ft | 459 kts | 146° |
| 2026-04-26 10:25 | 12.53043 | 121.71292 | 17281 ft | 456 kts | 146° |
| 2026-04-26 10:25 | 12.50430 | 121.73108 | 16712 ft | 452 kts | 146° |
| 2026-04-26 10:25 | 12.47842 | 121.74906 | 16169 ft | 448 kts | 146° |
| 2026-04-26 10:25 | 12.45278 | 121.76691 | 15630 ft | 444 kts | 146° |
| 2026-04-26 10:26 | 12.42736 | 121.78463 | 15093 ft | 440 kts | 146° |
| 2026-04-26 10:26 | 12.40206 | 121.80225 | 14554 ft | 437 kts | 146° |
| 2026-04-26 10:26 | 12.37536 | 121.81647 | 14024 ft | 432 kts | 161° |
| 2026-04-26 10:26 | 12.34633 | 121.82137 | 13475 ft | 428 kts | 180° |
| 2026-04-26 10:27 | 12.31703 | 121.81723 | 12929 ft | 426 kts | 191° |
| 2026-04-26 10:27 | 12.28808 | 121.81102 | 12442 ft | 424 kts | 192° |
| 2026-04-26 10:27 | 12.25922 | 121.80470 | 12019 ft | 422 kts | 192° |
| 2026-04-26 10:27 | 12.23072 | 121.79841 | 11337 ft | 417 kts | 192° |
| 2026-04-26 10:28 | 12.20256 | 121.79223 | 10640 ft | 413 kts | 191° |
| 2026-04-26 10:28 | 12.17453 | 121.78612 | 9925 ft | 410 kts | 191° |
| 2026-04-26 10:28 | 12.14667 | 121.78007 | 9165 ft | 407 kts | 191° |
| 2026-04-26 10:28 | 12.11910 | 121.77411 | 8426 ft | 403 kts | 191° |
| 2026-04-26 10:29 | 12.09171 | 121.76820 | 7699 ft | 400 kts | 191° |
| 2026-04-26 10:29 | 12.06461 | 121.76234 | 6998 ft | 396 kts | 190° |
| 2026-04-26 10:29 | 12.03776 | 121.75652 | 6277 ft | 393 kts | 190° |
| 2026-04-26 10:29 | 12.01113 | 121.75076 | 5499 ft | 389 kts | 189° |
| 2026-04-26 10:30 | 11.98473 | 121.74506 | 4708 ft | 387 kts | 189° |
| 2026-04-26 10:30 | 11.95845 | 121.73940 | 4099 ft | 386 kts | 189° |
| 2026-04-26 10:30 | 11.93264 | 121.73390 | 3895 ft | 362 kts | 188° |
| 2026-04-26 10:30 | 11.90907 | 121.73339 | 3833 ft | 318 kts | 165° |
| 2026-04-26 10:31 | 11.88963 | 121.74040 | 3845 ft | 279 kts | 149° |
| 2026-04-26 10:31 | 11.87305 | 121.74871 | 3847 ft | 255 kts | 148° |
| 2026-04-26 10:31 | 11.85775 | 121.75654 | 3853 ft | 239 kts | 148° |
| 2026-04-26 10:31 | 11.84467 | 121.76569 | 3831 ft | 218 kts | 122° |
| 2026-04-26 10:32 | 11.83980 | 121.77916 | 3788 ft | 195 kts | 88° |
| 2026-04-26 10:32 | 11.84315 | 121.79194 | 3576 ft | 185 kts | 60° |
| 2026-04-26 10:32 | 11.84921 | 121.80317 | 3292 ft | 181 kts | 63° |
| 2026-04-26 10:32 | 11.85491 | 121.81446 | 3030 ft | 177 kts | 64° |
| 2026-04-26 10:33 | 11.86027 | 121.82526 | 2800 ft | 162 kts | 64° |
| 2026-04-26 10:33 | 11.86510 | 121.83497 | 2576 ft | 148 kts | 64° |
| 2026-04-26 10:33 | 11.86965 | 121.84411 | 2370 ft | 142 kts | 64° |
| 2026-04-26 10:33 | 11.87409 | 121.85300 | 2173 ft | 140 kts | 64° |
| 2026-04-26 10:34 | 11.87847 | 121.86182 | 1987 ft | 138 kts | 64° |
| 2026-04-26 10:34 | 11.88280 | 121.87060 | 1771 ft | 139 kts | 64° |
| 2026-04-26 10:34 | 11.88711 | 121.87936 | 1563 ft | 137 kts | 64° |
| 2026-04-26 10:34 | 11.89154 | 121.88797 | 1467 ft | 137 kts | 63° |
| 2026-04-26 10:35 | 11.89599 | 121.89662 | 1330 ft | 137 kts | 64° |
| 2026-04-26 10:35 | 11.90026 | 121.90533 | 1067 ft | 137 kts | 63° |
| 2026-04-26 10:35 | 11.90453 | 121.91402 | 817 ft | 136 kts | 63° |
| 2026-04-26 10:35 | 11.90888 | 121.92254 | 617 ft | 135 kts | 63° |
| 2026-04-26 10:36 | 11.91311 | 121.93106 | 452 ft | 134 kts | 65° |
| 2026-04-26 10:36 | 11.91740 | 121.93967 | 297 ft | 138 kts | 65° |
| 2026-04-26 10:36 | 11.92172 | 121.94836 | 110 ft | 137 kts | 64° |
| 2026-04-26 10:36 | 11.92581 | 121.95649 | 27 ft | 106 kts | 62° |
| 2026-04-26 10:37 | 11.92783 | 121.96048 | 27 ft | 27 kts | 62° |
| 2026-04-26 10:37 | 11.92790 | 121.96127 | 29 ft | 10 kts | 143° |
| 2026-04-26 10:37 | 11.92728 | 121.96159 | 26 ft | 10 kts | 154° |
| 2026-04-26 10:37 | 11.92670 | 121.96188 | 26 ft | 9 kts | 153° |
| 2026-04-26 10:38 | 11.92654 | 121.96231 | 26 ft | 9 kts | 72° |
| 2026-04-26 10:38 | 11.92691 | 121.96307 | 26 ft | 12 kts | 63° |
| 2026-04-26 10:38 | 11.92724 | 121.96372 | 26 ft | 6 kts | 63° |
| 2026-04-26 10:38 | 11.92714 | 121.96393 | 26 ft | 3 kts | 150° |
| 2026-04-26 10:39 | 11.92700 | 121.96400 | 26 ft | 2 kts | 154° |
| 2026-04-26 10:39 | 11.92692 | 121.96404 | 24 ft | 1 kts | 154° |
| 2026-04-26 10:39 | 11.92690 | 121.96405 | 24 ft | 0 kts | 154° |